createdAt,value
2022-12-23T00:01:23.465Z,16.58
2022-12-23T00:03:51.116Z,16.60
2022-12-23T00:06:19.494Z,17.98
2022-12-23T00:08:46.958Z,15.77
2022-12-23T00:11:15.537Z,19.58
2022-12-23T00:14:01.763Z,17.58
2022-12-23T00:16:28.900Z,19.80
2022-12-23T00:18:56.172Z,19.60
2022-12-23T00:21:23.697Z,20.23
2022-12-23T00:23:51.955Z,18.27
2022-12-23T00:26:19.094Z,16.63
2022-12-23T00:28:46.307Z,20.05
2022-12-23T00:31:14.002Z,18.58
2022-12-23T00:33:42.600Z,20.02
2022-12-23T00:36:14.535Z,19.58
2022-12-23T00:39:00.141Z,17.52
2022-12-23T00:41:47.571Z,17.65
2022-12-23T00:44:14.733Z,15.57
2022-12-23T00:46:41.869Z,15.45
2022-12-23T00:49:27.645Z,16.65
2022-12-23T00:51:54.785Z,14.48
2022-12-23T00:54:21.943Z,16.35
2022-12-23T00:56:49.147Z,18.13
2022-12-23T00:59:16.331Z,18.17
2022-12-23T01:02:02.468Z,18.25
2022-12-23T01:04:48.271Z,14.95
2022-12-23T01:07:15.375Z,13.40
2022-12-23T01:09:42.462Z,11.50
2022-12-23T01:12:09.667Z,15.60
2022-12-23T01:14:37.253Z,15.57
2022-12-23T01:17:04.550Z,16.35
2022-12-23T01:19:31.766Z,13.57
2022-12-23T01:21:58.956Z,13.52
2022-12-23T01:24:32.686Z,13.40
2022-12-23T01:26:59.970Z,13.88
2022-12-23T01:29:27.293Z,13.15
2022-12-23T01:31:54.534Z,13.45
2022-12-23T01:34:21.813Z,15.30
2022-12-23T01:36:48.939Z,21.10
2022-12-23T01:39:16.126Z,16.40
2022-12-23T01:42:02.072Z,13.80
2022-12-23T01:44:48.100Z,14.70
2022-12-23T01:47:28.471Z,15.75
2022-12-23T01:50:18.490Z,15.68
2022-12-23T01:52:47.629Z,16.00
2022-12-23T01:55:16.733Z,12.77
2022-12-23T01:57:44.910Z,14.98
2022-12-23T02:00:31.746Z,15.77
2022-12-23T02:05:46.192Z,14.90
2022-12-23T02:08:33.945Z,13.50
2022-12-23T02:11:23.913Z,14.25
2022-12-23T02:14:15.063Z,12.18
2022-12-23T02:16:45.754Z,14.57
2022-12-23T02:19:23.641Z,16.67
2022-12-23T02:21:53.876Z,16.77
2022-12-23T02:24:39.551Z,20.25
2022-12-23T02:27:06.604Z,15.77
2022-12-23T02:30:06.347Z,17.63
2022-12-23T02:32:56.619Z,15.80
2022-12-23T02:35:23.844Z,13.48
2022-12-23T02:37:58.635Z,14.50
2022-12-23T02:40:25.742Z,14.63
2022-12-23T02:42:56.421Z,14.65
2022-12-23T02:45:23.554Z,16.70
2022-12-23T02:47:53.004Z,14.50
2022-12-23T02:50:22.333Z,14.80
2022-12-23T02:52:50.662Z,17.67
2022-12-23T02:55:21.472Z,16.15
2022-12-23T02:57:49.946Z,15.07
2022-12-23T03:00:18.280Z,15.55
2022-12-23T03:02:45.875Z,15.88
2022-12-23T03:05:30.019Z,16.02
2022-12-23T03:07:59.677Z,15.20
2022-12-23T03:10:30.251Z,13.07
2022-12-23T03:13:04.942Z,18.20
2022-12-23T03:15:52.901Z,13.50
2022-12-23T03:18:34.486Z,17.58
2022-12-23T03:21:08.845Z,16.25
2022-12-23T03:23:49.108Z,18.35
2022-12-23T03:26:31.233Z,18.38
2022-12-23T03:29:02.383Z,18.02
2022-12-23T03:31:30.780Z,14.77
2022-12-23T03:34:10.056Z,19.58
2022-12-23T03:36:42.577Z,18.50
2022-12-23T03:39:11.913Z,16.17
2022-12-23T03:41:43.821Z,16.17
2022-12-23T03:44:14.139Z,18.27
2022-12-23T03:46:44.419Z,17.08
2022-12-23T03:49:20.279Z,16.98
2022-12-23T03:51:54.556Z,18.27
2022-12-23T03:54:25.073Z,17.75
2022-12-23T03:56:56.162Z,19.15
2022-12-23T03:59:28.646Z,17.52
2022-12-23T04:02:09.399Z,17.60
2022-12-23T04:04:48.820Z,15.57
2022-12-23T04:07:24.367Z,14.95
2022-12-23T04:09:55.116Z,16.17
2022-12-23T04:12:24.001Z,13.98
2022-12-23T04:14:51.414Z,12.68
2022-12-23T04:17:19.499Z,15.07
2022-12-23T04:19:46.964Z,14.27
2022-12-23T04:22:14.651Z,13.63
2022-12-23T04:24:42.149Z,14.50
2022-12-23T04:27:11.557Z,12.93
2022-12-23T04:29:38.794Z,16.92
2022-12-23T04:32:06.436Z,13.00
2022-12-23T04:34:33.619Z,13.73
2022-12-23T04:37:00.806Z,13.43
2022-12-23T04:39:27.992Z,13.57
2022-12-23T04:41:55.204Z,14.45
2022-12-23T04:44:22.363Z,13.80
2022-12-23T04:46:49.605Z,12.63
2022-12-23T04:49:16.846Z,12.50
2022-12-23T04:51:44.076Z,14.07
2022-12-23T04:54:11.255Z,13.20
2022-12-23T04:56:38.354Z,13.95
2022-12-23T04:59:05.534Z,14.27
2022-12-23T05:01:32.823Z,12.48
2022-12-23T05:04:00.138Z,15.15
2022-12-23T05:06:27.353Z,13.48
2022-12-23T05:08:54.650Z,14.48
2022-12-23T05:11:21.825Z,13.07
2022-12-23T05:13:48.990Z,14.13
2022-12-23T05:16:16.251Z,13.13
2022-12-23T05:18:43.568Z,13.40
2022-12-23T05:21:10.787Z,12.35
2022-12-23T05:23:38.144Z,15.60
2022-12-23T05:26:05.402Z,18.27
2022-12-23T05:28:32.479Z,13.95
2022-12-23T05:31:03.427Z,16.65
2022-12-23T05:33:31.263Z,18.00
2022-12-23T05:35:58.557Z,14.38
2022-12-23T05:38:25.988Z,17.65
2022-12-23T05:40:53.526Z,15.30
2022-12-23T05:43:20.769Z,17.38
2022-12-23T05:45:48.263Z,16.33
2022-12-23T05:48:15.375Z,13.60
2022-12-23T05:50:42.513Z,17.42
2022-12-23T05:53:09.834Z,14.00
2022-12-23T05:55:37.073Z,18.95
2022-12-23T05:58:04.954Z,13.00
2022-12-23T06:00:32.152Z,12.13
2022-12-23T06:02:59.529Z,10.88
2022-12-23T06:05:26.863Z,14.73
2022-12-23T06:07:53.983Z,12.82
2022-12-23T06:10:21.203Z,13.10
2022-12-23T06:12:48.429Z,9.60
2022-12-23T06:15:15.773Z,11.40
2022-12-23T06:17:43.244Z,10.23
2022-12-23T06:20:17.881Z,11.45
2022-12-23T06:22:47.071Z,10.00
2022-12-23T06:25:14.364Z,9.40
2022-12-23T06:27:41.643Z,11.02
2022-12-23T06:30:09.123Z,10.32
2022-12-23T06:32:38.624Z,9.35
2022-12-23T06:35:06.875Z,11.63
2022-12-23T06:37:34.070Z,10.40
2022-12-23T06:40:01.352Z,10.98
2022-12-23T06:42:28.619Z,10.85
2022-12-23T06:44:55.879Z,10.88
2022-12-23T06:47:23.018Z,12.43
2022-12-23T06:49:50.183Z,12.13
2022-12-23T06:52:17.325Z,11.68
2022-12-23T06:54:44.400Z,14.85
2022-12-23T06:57:11.471Z,12.43
2022-12-23T06:59:38.704Z,11.65
2022-12-23T07:02:06.645Z,11.13
2022-12-23T07:04:33.826Z,12.55
2022-12-23T07:07:00.921Z,11.98
2022-12-23T07:09:28.124Z,12.45
2022-12-23T07:11:55.305Z,11.77
2022-12-23T07:14:22.464Z,12.07
2022-12-23T07:16:49.822Z,11.18
2022-12-23T07:19:17.028Z,12.52
2022-12-23T07:21:44.161Z,11.10
2022-12-23T07:24:11.318Z,10.65
2022-12-23T07:26:38.485Z,10.95
2022-12-23T07:29:05.690Z,13.10
2022-12-23T07:31:32.830Z,10.93
2022-12-23T07:33:59.948Z,11.40
2022-12-23T07:36:27.225Z,11.88
2022-12-23T07:38:54.455Z,12.05
2022-12-23T07:41:21.683Z,13.05
2022-12-23T07:43:48.805Z,13.27
2022-12-23T07:46:16.027Z,14.27
2022-12-23T07:48:43.283Z,14.15
2022-12-23T07:51:10.974Z,13.38
2022-12-23T07:53:38.537Z,13.90
2022-12-23T07:56:05.956Z,14.25
2022-12-23T07:58:33.131Z,13.48
2022-12-23T08:01:01.280Z,13.20
2022-12-23T08:03:28.429Z,15.90
2022-12-23T08:06:08.820Z,15.50
2022-12-23T08:08:36.411Z,15.63
2022-12-23T08:11:04.935Z,14.15
2022-12-23T08:13:33.231Z,16.33
2022-12-23T08:16:01.291Z,15.38
2022-12-23T08:18:30.387Z,16.45
2022-12-23T08:20:58.717Z,17.98
2022-12-23T08:23:26.435Z,19.15
2022-12-23T08:26:05.959Z,20.25
2022-12-23T08:31:07.516Z,18.65
2022-12-23T08:33:36.342Z,19.75
2022-12-23T08:36:04.041Z,19.95
2022-12-23T08:38:31.653Z,19.90
2022-12-23T08:40:58.925Z,19.25
2022-12-23T08:43:31.785Z,19.80
2022-12-23T08:46:02.513Z,23.35
2022-12-23T08:48:29.647Z,20.02
2022-12-23T08:50:56.850Z,20.25
2022-12-23T08:53:24.001Z,22.08
2022-12-23T08:55:51.131Z,21.85
2022-12-23T08:58:18.354Z,23.33
2022-12-23T09:00:45.499Z,24.50
2022-12-23T09:03:12.828Z,26.40
2022-12-23T09:05:41.121Z,21.88
2022-12-23T09:08:08.694Z,22.48
2022-12-23T09:10:41.440Z,26.67
2022-12-23T09:13:08.665Z,22.58
2022-12-23T09:15:38.773Z,25.20
2022-12-23T09:18:06.143Z,27.67
2022-12-23T09:20:33.373Z,21.55
2022-12-23T09:23:01.653Z,24.50
2022-12-23T09:25:28.828Z,24.75
2022-12-23T09:27:56.303Z,23.90
2022-12-23T09:30:23.508Z,26.90
2022-12-23T09:32:50.704Z,26.83
2022-12-23T09:35:18.180Z,26.25
2022-12-23T09:37:45.338Z,30.77
2022-12-23T09:40:16.335Z,37.08
2022-12-23T09:42:50.974Z,31.27
2022-12-23T09:45:40.146Z,32.88
2022-12-23T09:48:12.737Z,31.35
2022-12-23T09:50:40.709Z,32.95
2022-12-23T09:53:12.096Z,34.13
2022-12-23T09:55:55.415Z,38.67
2022-12-23T09:58:31.816Z,32.40
2022-12-23T10:01:11.463Z,36.08
2022-12-23T10:03:41.735Z,34.95
2022-12-23T10:06:16.460Z,36.08
2022-12-23T10:08:48.497Z,29.98
2022-12-23T10:11:15.893Z,29.80
2022-12-23T10:13:45.140Z,28.20
2022-12-23T10:16:14.003Z,27.10
2022-12-23T10:18:47.869Z,27.10
2022-12-23T10:21:19.818Z,25.80
2022-12-23T10:23:50.065Z,27.92
2022-12-23T10:26:29.885Z,27.58
2022-12-23T10:29:01.738Z,22.40
2022-12-23T10:31:40.941Z,25.65
2022-12-23T10:34:14.323Z,23.58
2022-12-23T10:36:48.745Z,22.00
2022-12-23T10:39:44.625Z,25.35
2022-12-23T10:42:36.480Z,25.30
2022-12-23T10:45:19.230Z,22.42
2022-12-23T10:48:08.592Z,27.52
2022-12-23T10:50:39.359Z,25.65
2022-12-23T10:53:11.621Z,23.20
2022-12-23T10:55:39.143Z,24.35
2022-12-23T10:58:18.228Z,26.85
2022-12-23T11:00:48.230Z,22.15
2022-12-23T11:03:24.227Z,24.77
2022-12-23T11:05:53.336Z,21.52
2022-12-23T11:08:24.034Z,25.05
2022-12-23T11:10:51.277Z,20.02
2022-12-23T11:13:44.766Z,21.67
2022-12-23T11:16:32.152Z,25.55
2022-12-23T11:19:05.082Z,22.30
2022-12-23T11:21:33.330Z,25.90
2022-12-23T11:24:10.554Z,27.42
2022-12-23T11:26:37.878Z,24.25
2022-12-23T11:29:07.827Z,26.95
2022-12-23T11:31:36.581Z,23.15
2022-12-23T11:34:08.088Z,28.92
2022-12-23T11:36:35.659Z,28.88
2022-12-23T11:39:06.961Z,26.73
2022-12-23T11:41:39.697Z,30.02
2022-12-23T11:44:30.806Z,27.50
2022-12-23T11:46:58.031Z,27.25
2022-12-23T11:49:31.377Z,30.83
2022-12-23T11:52:01.905Z,32.70
2022-12-23T11:54:29.568Z,31.70
2022-12-23T11:56:56.916Z,34.30
2022-12-23T11:59:29.464Z,34.58
2022-12-23T12:02:01.490Z,33.53
2022-12-23T12:04:31.101Z,34.17
2022-12-23T12:06:58.398Z,39.55
2022-12-23T12:09:25.637Z,40.15
2022-12-23T12:11:59.022Z,33.53
2022-12-23T12:14:30.695Z,42.67
2022-12-23T12:17:01.472Z,39.33
2022-12-23T12:19:51.608Z,38.00
2022-12-23T12:22:31.278Z,38.70
2022-12-23T12:24:59.562Z,36.47
2022-12-23T12:27:32.471Z,39.42
2022-12-23T12:30:08.094Z,36.20
2022-12-23T12:32:38.875Z,36.38
2022-12-23T12:35:13.905Z,34.00
2022-12-23T12:37:50.106Z,37.35
2022-12-23T12:40:38.589Z,38.95
2022-12-23T12:43:12.575Z,31.10
2022-12-23T12:45:44.677Z,32.58
2022-12-23T12:48:18.737Z,33.88
2022-12-23T12:50:55.176Z,33.20
2022-12-23T12:53:23.266Z,31.67
2022-12-23T12:55:53.732Z,33.53
2022-12-23T12:58:21.745Z,29.52
2022-12-23T13:00:55.087Z,31.95
2022-12-23T13:03:22.311Z,30.73
2022-12-23T13:05:55.329Z,31.17
2022-12-23T13:08:28.449Z,29.38
2022-12-23T13:10:58.783Z,27.85
2022-12-23T13:13:44.451Z,30.23
2022-12-23T13:16:17.759Z,30.77
2022-12-23T13:19:03.345Z,29.35
2022-12-23T13:21:41.151Z,24.17
2022-12-23T13:24:19.563Z,26.98
2022-12-23T13:26:53.736Z,29.58
2022-12-23T13:29:42.523Z,27.48
2022-12-23T13:32:18.398Z,25.98
2022-12-23T13:34:59.752Z,24.30
2022-12-23T13:37:37.264Z,28.70
2022-12-23T13:40:04.384Z,30.17
2022-12-23T13:42:34.520Z,27.52
2022-12-23T13:45:02.198Z,27.38
2022-12-23T13:47:35.626Z,26.70
2022-12-23T13:50:02.823Z,28.27
2022-12-23T13:52:39.397Z,31.02
2022-12-23T13:55:36.351Z,26.73
2022-12-23T13:58:12.016Z,26.00
2022-12-23T14:00:39.274Z,25.98
2022-12-23T14:03:17.579Z,27.60
2022-12-23T14:05:45.749Z,29.65
2022-12-23T14:08:19.007Z,25.98
2022-12-23T14:11:13.333Z,30.42
2022-12-23T14:13:52.484Z,28.65
2022-12-23T14:16:25.728Z,27.73
2022-12-23T14:19:06.734Z,28.08
2022-12-23T14:21:49.203Z,27.02
2022-12-23T14:24:36.076Z,29.05
2022-12-23T14:27:50.592Z,26.90
2022-12-23T14:30:38.755Z,26.73
2022-12-23T14:33:16.757Z,23.30
2022-12-23T14:35:43.871Z,27.60
2022-12-23T14:38:22.905Z,26.58
2022-12-23T14:40:51.695Z,26.38
2022-12-23T14:43:19.477Z,24.55
2022-12-23T14:45:46.538Z,24.20
2022-12-23T14:48:47.971Z,24.50
2022-12-23T14:51:15.143Z,26.13
2022-12-23T14:54:00.571Z,26.67
2022-12-23T14:56:43.218Z,26.48
2022-12-23T14:59:17.160Z,24.95
2022-12-23T15:01:55.993Z,25.60
2022-12-23T15:04:29.190Z,23.42
2022-12-23T15:09:34.980Z,24.20
2022-12-23T15:12:05.545Z,24.38
2022-12-23T15:14:38.963Z,20.42
2022-12-23T15:17:16.766Z,22.00
2022-12-23T15:19:48.010Z,22.45
2022-12-23T15:22:23.694Z,21.40
2022-12-23T15:24:55.516Z,23.42
2022-12-23T15:27:28.516Z,22.92
2022-12-23T15:29:56.899Z,20.20
2022-12-23T15:32:24.555Z,23.15
2022-12-23T15:34:52.612Z,21.00
2022-12-23T15:37:23.123Z,21.73
2022-12-23T15:39:55.706Z,19.55
2022-12-23T15:42:31.616Z,23.25
2022-12-23T15:44:59.429Z,21.45
2022-12-23T15:47:31.605Z,20.20
2022-12-23T15:50:00.003Z,20.30
2022-12-23T15:52:28.982Z,26.13
2022-12-23T15:55:03.385Z,22.40
2022-12-23T15:57:31.307Z,25.10
2022-12-23T15:59:59.806Z,23.15
2022-12-23T16:03:00.482Z,22.13
2022-12-23T16:05:39.809Z,23.73
2022-12-23T16:08:16.217Z,23.80
2022-12-23T16:10:44.529Z,24.02
2022-12-23T16:13:21.239Z,27.67
2022-12-23T16:15:48.556Z,24.90
2022-12-23T16:18:23.681Z,23.30
2022-12-23T16:20:53.743Z,23.75
2022-12-23T16:23:21.590Z,24.05
2022-12-23T16:25:51.007Z,22.23
2022-12-23T16:28:21.635Z,22.55
2022-12-23T16:30:49.998Z,26.90
2022-12-23T16:33:23.262Z,28.30
2022-12-23T16:35:50.355Z,25.60
2022-12-23T16:38:18.728Z,26.00
2022-12-23T16:40:52.979Z,25.92
2022-12-23T16:43:20.729Z,25.80
2022-12-23T16:45:50.836Z,21.35
2022-12-23T16:48:39.152Z,23.25
2022-12-23T16:51:14.008Z,23.65
2022-12-23T16:53:41.472Z,20.83
2022-12-23T16:56:19.496Z,21.35
2022-12-23T16:58:47.209Z,23.17
2022-12-23T17:01:21.308Z,22.25
2022-12-23T17:03:48.583Z,21.02
2022-12-23T17:06:16.346Z,21.90
2022-12-23T17:08:43.777Z,23.40
2022-12-23T17:11:22.882Z,25.15
2022-12-23T17:13:50.012Z,25.83
2022-12-23T17:16:20.141Z,26.00
2022-12-23T17:18:48.177Z,26.83
2022-12-23T17:21:22.202Z,29.27
2022-12-23T17:23:49.819Z,27.33
2022-12-23T17:26:17.067Z,24.63
2022-12-23T17:28:44.219Z,25.50
2022-12-23T17:31:15.387Z,23.15
2022-12-23T17:33:44.288Z,21.90
2022-12-23T17:36:12.534Z,23.38
2022-12-23T17:38:39.727Z,21.83
2022-12-23T17:41:06.895Z,20.60
2022-12-23T17:43:34.014Z,20.67
2022-12-23T17:46:01.190Z,19.63
2022-12-23T17:48:31.934Z,20.17
2022-12-23T17:50:59.299Z,19.50
2022-12-23T17:53:26.406Z,22.25
2022-12-23T17:55:53.476Z,20.02
2022-12-23T17:58:20.537Z,21.27
2022-12-23T18:00:47.811Z,20.67
2022-12-23T18:03:23.167Z,19.48
2022-12-23T18:05:54.410Z,17.80
2022-12-23T18:08:26.797Z,21.75
2022-12-23T18:10:54.495Z,17.77
2022-12-23T18:13:22.039Z,20.13
2022-12-23T18:15:50.851Z,18.55
2022-12-23T18:18:27.545Z,17.13
2022-12-23T18:20:58.632Z,15.50
2022-12-23T18:23:27.400Z,17.23
2022-12-23T18:25:54.950Z,17.05
2022-12-23T18:28:22.401Z,14.77
2022-12-23T18:30:50.627Z,16.25
2022-12-23T18:33:18.167Z,13.50
2022-12-23T18:35:46.965Z,16.58
2022-12-23T18:38:14.819Z,11.88
2022-12-23T18:40:42.863Z,20.83
2022-12-23T18:43:17.831Z,22.73
2022-12-23T18:45:52.481Z,21.00
2022-12-23T18:48:21.262Z,22.02
2022-12-23T18:50:48.706Z,24.65
2022-12-23T18:53:24.639Z,21.63
2022-12-23T18:55:53.230Z,29.05
2022-12-23T18:58:20.523Z,34.38
2022-12-23T19:00:48.257Z,30.85
2022-12-23T19:03:20.957Z,33.58
2022-12-23T19:05:48.832Z,24.70
2022-12-23T19:08:21.849Z,26.92
2022-12-23T19:10:53.039Z,34.63
2022-12-23T19:13:20.546Z,29.45
2022-12-23T19:15:47.741Z,29.92
2022-12-23T19:18:16.283Z,33.72
2022-12-23T19:20:43.931Z,25.67
2022-12-23T19:23:11.685Z,29.77
2022-12-23T19:25:44.216Z,28.92
2022-12-23T19:28:13.429Z,23.25
2022-12-23T19:30:41.749Z,35.33
2022-12-23T19:33:09.651Z,36.58
2022-12-23T19:35:36.952Z,22.67
2022-12-23T19:38:04.554Z,24.13
2022-12-23T19:40:31.780Z,39.90
2022-12-23T19:42:59.020Z,26.25
2022-12-23T19:45:26.241Z,23.77
2022-12-23T19:47:53.888Z,37.60
2022-12-23T19:50:22.232Z,34.92
2022-12-23T19:52:52.248Z,27.95
2022-12-23T19:55:19.365Z,29.30
2022-12-23T19:57:46.428Z,28.75
2022-12-23T20:00:15.753Z,33.58
2022-12-23T20:02:43.018Z,35.95
2022-12-23T20:05:10.238Z,27.08
2022-12-23T20:07:38.083Z,28.73
2022-12-23T20:10:05.796Z,43.38
2022-12-23T20:12:33.249Z,32.60
2022-12-23T20:15:00.477Z,31.13
2022-12-23T20:17:27.639Z,25.92
2022-12-23T20:19:54.906Z,32.28
2022-12-23T20:22:22.351Z,28.15
2022-12-23T20:24:49.829Z,30.85
2022-12-23T20:27:20.165Z,29.92
2022-12-23T20:29:49.848Z,33.88
2022-12-23T20:32:16.918Z,32.60
2022-12-23T20:34:43.986Z,29.85
2022-12-23T20:37:11.769Z,27.77
2022-12-23T20:39:38.907Z,24.33
2022-12-23T20:42:06.077Z,22.45
2022-12-23T20:44:35.757Z,23.60
2022-12-23T20:47:04.861Z,21.70
2022-12-23T20:49:32.071Z,20.52
2022-12-23T20:51:59.303Z,23.50
2022-12-23T20:54:32.216Z,22.92
2022-12-23T20:57:00.290Z,20.55
2022-12-23T20:59:27.606Z,30.35
2022-12-23T21:01:55.067Z,26.52
2022-12-23T21:04:22.702Z,24.95
2022-12-23T21:06:49.944Z,16.02
2022-12-23T21:09:17.592Z,17.02
2022-12-23T21:11:46.667Z,14.77
2022-12-23T21:14:14.421Z,21.27
2022-12-23T21:16:42.264Z,14.82
2022-12-23T21:19:13.781Z,24.98
2022-12-23T21:21:40.924Z,10.20
2022-12-23T21:24:08.226Z,14.50
2022-12-23T21:26:35.912Z,17.45
2022-12-23T21:29:04.660Z,17.15
2022-12-23T21:31:32.993Z,15.45
2022-12-23T21:34:00.317Z,17.85
2022-12-23T21:36:28.611Z,13.25
2022-12-23T21:38:55.916Z,14.80
2022-12-23T21:41:24.628Z,11.45
2022-12-23T21:43:52.258Z,8.30
2022-12-23T21:46:20.718Z,14.98
2022-12-23T21:48:48.021Z,16.60
2022-12-23T21:51:20.093Z,10.13
2022-12-23T21:53:49.227Z,13.82
2022-12-23T21:56:18.277Z,17.02
2022-12-23T21:58:45.855Z,16.45
2022-12-23T22:01:17.475Z,18.58
2022-12-23T22:03:45.276Z,13.95
2022-12-23T22:06:13.806Z,13.05
2022-12-23T22:08:41.078Z,11.32
2022-12-23T22:11:08.966Z,16.60
2022-12-23T22:13:36.503Z,11.52
2022-12-23T22:16:04.333Z,13.30
2022-12-23T22:18:31.835Z,22.13
2022-12-23T22:20:58.947Z,15.98
2022-12-23T22:23:26.089Z,12.95
2022-12-23T22:25:56.401Z,18.02
2022-12-23T22:28:23.561Z,16.40
2022-12-23T22:30:50.755Z,18.77
2022-12-23T22:33:17.980Z,15.77
2022-12-23T22:35:54.527Z,13.00
2022-12-23T22:38:21.685Z,21.15
2022-12-23T22:40:49.790Z,14.65
2022-12-23T22:43:16.947Z,13.25
2022-12-23T22:45:44.241Z,17.33
2022-12-23T22:48:11.527Z,18.55
2022-12-23T22:50:39.105Z,19.27
2022-12-23T22:53:06.497Z,14.60
2022-12-23T22:55:33.615Z,16.50
2022-12-23T22:58:00.721Z,16.33
2022-12-23T23:00:27.884Z,16.83
2022-12-23T23:02:55.036Z,20.70
2022-12-23T23:05:22.244Z,16.70
2022-12-23T23:07:49.376Z,16.70
2022-12-23T23:10:17.040Z,20.58
2022-12-23T23:12:44.347Z,25.83
2022-12-23T23:15:11.826Z,17.75
2022-12-23T23:17:38.946Z,17.90
2022-12-23T23:20:06.462Z,13.07
2022-12-23T23:22:33.867Z,15.88
2022-12-23T23:25:01.003Z,16.08
2022-12-23T23:27:28.098Z,14.55
2022-12-23T23:29:55.241Z,22.02
2022-12-23T23:32:22.560Z,20.42
2022-12-23T23:34:49.846Z,11.93
2022-12-23T23:37:17.013Z,19.10
2022-12-23T23:39:44.137Z,15.90
2022-12-23T23:42:11.352Z,22.63
2022-12-23T23:44:38.412Z,18.30
2022-12-23T23:47:05.486Z,20.42
2022-12-23T23:49:32.692Z,18.77
2022-12-23T23:51:59.827Z,18.77
2022-12-23T23:54:26.897Z,19.15
2022-12-23T23:56:53.960Z,19.35
2022-12-23T23:59:21.092Z,19.83
